Time;durP1;ratioP1;P1;durP2;ratioP2;P2;SDS_P1;SDS_P2;PMS_P1;PMS_P2;Temp;Humidity;BMP_temperature;BMP_pressure;BME280_temperature;BME280_humidity;BME280_pressure;Samples;Min_cycle;Max_cycle;Signal;HPM_P1;HPM_P2
2023/11/05 00:01:39;;;;;;;14.07;2.70;;;9.60;99.90;;;;;;4939309;28;20046;-65
2023/11/05 00:04:04;;;;;;;12.43;2.90;;;9.50;99.90;;;;;;4954995;28;20496;-65
2023/11/05 00:06:34;;;;;;;13.32;2.70;;;9.50;99.90;;;;;;4971972;28;20039;-65
2023/11/05 00:09:00;;;;;;;13.27;2.67;;;9.50;99.90;;;;;;4972079;28;20125;-65
2023/11/05 00:11:26;;;;;;;13.15;2.95;;;9.50;99.90;;;;;;4954907;28;20666;-65
2023/11/05 00:13:51;;;;;;;13.30;2.70;;;9.50;99.90;;;;;;4971921;28;20129;-65
2023/11/05 00:16:17;;;;;;;12.93;2.33;;;9.50;99.90;;;;;;4954289;28;20129;-65
2023/11/05 00:18:42;;;;;;;11.38;2.97;;;9.50;99.90;;;;;;4971988;28;20600;-65
2023/11/05 00:21:08;;;;;;;11.93;2.55;;;9.50;99.90;;;;;;4954815;28;20043;-65
2023/11/05 00:23:34;;;;;;;12.77;2.80;;;9.50;99.90;;;;;;4955197;28;20051;-65
2023/11/05 00:25:59;;;;;;;10.23;2.40;;;9.50;99.90;;;;;;4954662;28;20507;-64
2023/11/05 00:28:25;;;;;;;15.00;3.22;;;9.50;99.90;;;;;;4971954;28;20043;-64
2023/11/05 00:30:51;;;;;;;12.57;2.83;;;9.50;99.90;;;;;;4972211;28;20043;-65
2023/11/05 00:33:17;;;;;;;9.60;2.50;;;9.40;99.90;;;;;;4954802;28;20057;-65
2023/11/05 00:35:46;;;;;;;20.90;3.00;;;9.40;99.90;;;;;;4971919;28;20433;-65
2023/11/05 00:38:12;;;;;;;10.85;2.20;;;9.40;99.90;;;;;;4954306;28;20046;-64
2023/11/05 00:40:38;;;;;;;8.68;2.20;;;9.40;99.90;;;;;;4954226;28;20375;-64
2023/11/05 00:43:04;;;;;;;13.00;3.00;;;9.40;99.90;;;;;;4953498;28;20113;-64
2023/11/05 00:45:30;;;;;;;10.60;2.88;;;9.30;99.90;;;;;;4970844;28;20525;-64
2023/11/05 00:47:55;;;;;;;14.52;2.60;;;9.30;99.90;;;;;;4971213;28;20039;-64
2023/11/05 00:50:21;;;;;;;15.85;2.40;;;9.30;99.90;;;;;;4954418;28;20173;-65
2023/11/05 00:52:47;;;;;;;9.60;2.60;;;9.30;99.90;;;;;;4970666;28;20038;-64
2023/11/05 00:55:14;;;;;;;12.15;2.50;;;9.20;99.90;;;;;;4970987;28;20054;-64
2023/11/05 00:57:43;;;;;;;15.70;2.85;;;9.20;99.90;;;;;;4938135;28;20043;-64
2023/11/05 01:00:12;;;;;;;12.93;2.38;;;9.20;99.90;;;;;;4971377;28;20410;-64
2023/11/05 01:02:39;;;;;;;12.18;2.55;;;9.20;99.90;;;;;;4971093;28;20510;-64
2023/11/05 01:05:05;;;;;;;19.98;2.67;;;9.10;99.90;;;;;;4970883;28;20089;-64
2023/11/05 01:07:32;;;;;;;13.77;2.83;;;9.10;99.90;;;;;;4970551;28;20045;-64
2023/11/05 01:09:57;;;;;;;12.18;2.85;;;9.10;99.90;;;;;;4937478;28;20050;-64
2023/11/05 01:12:23;;;;;;;14.38;2.45;;;9.10;99.90;;;;;;4970636;28;20664;-64
2023/11/05 01:14:49;;;;;;;12.25;2.65;;;9.10;99.90;;;;;;4953479;28;20044;-64
2023/11/05 01:17:15;;;;;;;10.48;2.42;;;9.10;99.90;;;;;;4952993;28;20050;-64
2023/11/05 01:19:41;;;;;;;10.55;2.50;;;9.00;99.90;;;;;;4953182;28;20078;-64
2023/11/05 01:22:08;;;;;;;12.68;2.33;;;9.00;99.90;;;;;;4953481;28;20091;-64
2023/11/05 01:24:34;;;;;;;12.40;2.47;;;9.00;99.90;;;;;;4953322;28;20455;-65
2023/11/05 01:27:01;;;;;;;12.23;2.45;;;9.00;99.90;;;;;;4953209;28;20049;-65
2023/11/05 01:29:26;;;;;;;11.30;2.20;;;9.00;99.90;;;;;;4971032;28;20097;-66
2023/11/05 01:31:52;;;;;;;17.88;3.05;;;9.00;99.90;;;;;;4971422;28;20054;-64
2023/11/05 01:34:17;;;;;;;12.82;2.60;;;9.00;99.90;;;;;;4971179;28;20051;-65
2023/11/05 01:36:43;;;;;;;14.07;2.80;;;9.00;99.90;;;;;;4970555;28;20494;-65
2023/11/05 01:39:09;;;;;;;20.42;2.90;;;9.10;99.90;;;;;;4971038;28;20035;-65
2023/11/05 01:41:34;;;;;;;15.13;2.50;;;9.10;99.90;;;;;;4953373;28;20046;-65
2023/11/05 01:44:00;;;;;;;11.75;2.80;;;9.10;99.90;;;;;;4953843;28;20046;-65
2023/11/05 01:46:26;;;;;;;15.15;3.22;;;9.10;99.90;;;;;;4970743;28;20486;-65
2023/11/05 01:48:53;;;;;;;12.20;2.85;;;9.10;99.90;;;;;;4971214;28;20038;-64
2023/11/05 01:51:20;;;;;;;14.35;2.67;;;9.10;99.90;;;;;;4971435;28;20521;-65
2023/11/05 01:53:50;;;;;;;13.18;2.90;;;9.10;99.90;;;;;;4970845;28;20034;-64
2023/11/05 01:56:20;;;;;;;15.00;2.80;;;9.10;99.90;;;;;;4969457;28;20114;-65
2023/11/05 01:58:50;;;;;;;10.88;2.80;;;9.20;99.90;;;;;;4937448;28;20115;-64
2023/11/05 02:01:17;;;;;;;18.38;2.90;;;9.10;99.90;;;;;;4970857;28;20399;-65
2023/11/05 02:03:43;;;;;;;14.82;2.72;;;9.10;99.90;;;;;;4953434;28;20388;-65
2023/11/05 02:06:12;;;;;;;12.35;3.00;;;9.10;99.90;;;;;;4970380;28;20046;-64
2023/11/05 02:08:40;;;;;;;17.63;3.13;;;9.10;99.90;;;;;;4970595;28;20498;-65
2023/11/05 02:11:06;;;;;;;11.15;2.50;;;9.10;99.90;;;;;;4953280;28;20505;-65
2023/11/05 02:13:46;;;;;;;12.13;2.45;;;9.10;99.90;;;;;;4970774;28;20046;-65
2023/11/05 02:16:13;;;;;;;15.25;2.70;;;9.10;99.90;;;;;;4970306;28;20038;-65
2023/11/05 02:18:39;;;;;;;13.38;2.60;;;9.10;99.90;;;;;;4953091;28;20065;-65
2023/11/05 02:21:05;;;;;;;13.88;2.90;;;9.10;99.90;;;;;;4951961;28;20047;-65
2023/11/05 02:23:35;;;;;;;7.80;2.35;;;9.10;99.90;;;;;;4952397;28;20047;-65
2023/11/05 02:26:01;;;;;;;8.15;2.28;;;9.10;99.90;;;;;;4951475;28;20046;-65
2023/11/05 02:28:27;;;;;;;13.10;3.05;;;9.10;99.90;;;;;;4951462;28;20446;-65
2023/11/05 02:30:55;;;;;;;14.27;3.10;;;9.10;99.90;;;;;;4969212;28;20101;-65
2023/11/05 02:33:21;;;;;;;13.52;2.80;;;9.10;99.90;;;;;;4969321;28;20078;-65
2023/11/05 02:35:47;;;;;;;11.77;3.03;;;9.10;99.90;;;;;;4968906;28;20139;-65
2023/11/05 02:38:13;;;;;;;19.08;3.08;;;9.10;99.90;;;;;;4952169;28;20286;-65
2023/11/05 02:40:38;;;;;;;10.32;2.58;;;9.20;99.90;;;;;;4968984;28;20054;-65
2023/11/05 02:43:04;;;;;;;11.65;2.55;;;9.20;99.90;;;;;;4969245;28;20042;-65
2023/11/05 02:45:29;;;;;;;13.40;2.50;;;9.20;99.90;;;;;;4968985;28;20548;-65
2023/11/05 02:47:55;;;;;;;10.43;2.10;;;9.20;99.90;;;;;;4969425;28;20042;-65
2023/11/05 02:50:20;;;;;;;13.50;2.83;;;9.20;99.90;;;;;;4968967;28;20078;-65
2023/11/05 02:52:46;;;;;;;10.93;2.67;;;9.20;99.90;;;;;;4969155;28;20502;-65
2023/11/05 02:55:12;;;;;;;11.68;2.25;;;9.20;99.90;;;;;;4968675;28;20035;-65
2023/11/05 02:57:37;;;;;;;12.73;2.30;;;9.20;99.90;;;;;;4951561;28;20406;-65
2023/11/05 03:00:05;;;;;;;10.52;2.67;;;9.20;99.90;;;;;;4968828;28;20047;-65
2023/11/05 03:02:35;;;;;;;11.90;2.78;;;9.20;99.90;;;;;;4952091;28;20050;-65
2023/11/05 03:05:01;;;;;;;9.85;2.50;;;9.20;99.90;;;;;;4951934;28;20102;-65
2023/11/05 03:07:26;;;;;;;11.13;2.28;;;9.20;99.90;;;;;;4951722;28;20034;-65
2023/11/05 03:09:52;;;;;;;10.73;2.78;;;9.20;99.90;;;;;;4969245;28;20470;-65
2023/11/05 03:12:18;;;;;;;12.55;2.67;;;9.20;99.90;;;;;;4951773;28;20054;-65
2023/11/05 03:14:43;;;;;;;9.75;2.65;;;9.20;99.90;;;;;;4951523;28;20051;-65
2023/11/05 03:17:09;;;;;;;11.52;2.65;;;9.20;99.90;;;;;;4950733;28;20105;-65
2023/11/05 03:19:35;;;;;;;12.00;2.97;;;9.30;99.90;;;;;;4951488;28;20138;-65
2023/11/05 03:22:00;;;;;;;10.43;2.00;;;9.20;99.90;;;;;;4968686;28;20075;-65
2023/11/05 03:24:26;;;;;;;11.65;2.30;;;9.30;99.90;;;;;;4968593;28;20047;-65
2023/11/05 03:26:52;;;;;;;14.15;2.75;;;9.30;99.90;;;;;;4968473;28;20089;-65
2023/11/05 03:29:18;;;;;;;14.25;2.53;;;9.30;99.90;;;;;;4951897;28;20402;-66
2023/11/05 03:31:46;;;;;;;15.63;2.47;;;9.20;99.90;;;;;;4968880;28;20042;-65
2023/11/05 03:34:12;;;;;;;12.07;2.85;;;9.30;99.90;;;;;;4968022;28;20114;-65
2023/11/05 03:36:37;;;;;;;9.68;1.92;;;9.30;99.90;;;;;;4968760;28;20114;-65
2023/11/05 03:39:03;;;;;;;15.30;2.42;;;9.30;99.90;;;;;;4951392;28;20046;-65
2023/11/05 03:41:29;;;;;;;9.95;2.33;;;9.30;99.90;;;;;;4951623;28;20039;-65
2023/11/05 03:43:54;;;;;;;10.50;2.90;;;9.30;99.90;;;;;;4951643;28;20053;-65
2023/11/05 03:46:20;;;;;;;11.85;2.10;;;9.30;99.90;;;;;;4968121;28;20043;-66
2023/11/05 03:48:45;;;;;;;12.10;2.72;;;9.30;99.90;;;;;;4968514;28;20050;-66
2023/11/05 03:51:15;;;;;;;14.88;2.42;;;9.30;99.90;;;;;;4969120;28;20133;-65
2023/11/05 03:53:41;;;;;;;13.93;2.25;;;9.30;99.90;;;;;;4968793;28;20050;-65
2023/11/05 03:56:09;;;;;;;10.40;2.22;;;9.30;99.90;;;;;;4968272;28;20461;-65
2023/11/05 03:58:37;;;;;;;11.52;2.95;;;9.30;99.90;;;;;;4951424;28;20046;-65
2023/11/05 04:01:04;;;;;;;14.55;2.55;;;9.30;99.90;;;;;;4951206;28;20114;-65
2023/11/05 04:03:31;;;;;;;12.07;2.58;;;9.30;99.90;;;;;;4968491;28;20126;-65
2023/11/05 04:05:56;;;;;;;8.45;2.17;;;9.40;99.90;;;;;;4951155;28;20114;-65
2023/11/05 04:08:22;;;;;;;9.75;2.30;;;9.30;99.90;;;;;;4968598;28;20181;-65
2023/11/05 04:10:47;;;;;;;15.85;2.70;;;9.40;99.90;;;;;;4951439;28;20050;-65
2023/11/05 04:13:13;;;;;;;13.13;2.60;;;9.40;99.90;;;;;;4968659;28;20516;-65
2023/11/05 04:15:38;;;;;;;14.85;2.92;;;9.40;99.90;;;;;;4967923;28;20070;-65
2023/11/05 04:18:04;;;;;;;14.35;3.15;;;9.40;99.90;;;;;;4951515;28;20043;-65
2023/11/05 04:20:30;;;;;;;17.52;2.88;;;9.30;99.90;;;;;;4972437;28;20070;-65
2023/11/05 04:22:55;;;;;;;11.68;2.25;;;9.40;99.90;;;;;;4954771;28;20050;-65
2023/11/05 04:25:21;;;;;;;10.70;2.47;;;9.40;99.90;;;;;;4954613;28;20078;-65
2023/11/05 04:27:46;;;;;;;12.57;2.85;;;9.40;99.90;;;;;;4972364;28;20038;-65
2023/11/05 04:30:12;;;;;;;14.70;2.80;;;9.40;99.90;;;;;;4954721;28;20035;-65
2023/11/05 04:32:38;;;;;;;14.88;2.70;;;9.40;99.90;;;;;;4954891;28;20422;-65
2023/11/05 04:35:04;;;;;;;12.52;2.88;;;9.40;99.90;;;;;;4954115;28;20042;-65
2023/11/05 04:37:29;;;;;;;12.77;3.28;;;9.40;99.90;;;;;;4971138;28;20046;-65
2023/11/05 04:39:55;;;;;;;8.85;2.95;;;9.40;99.90;;;;;;4972128;28;20527;-65
2023/11/05 04:42:21;;;;;;;13.73;3.38;;;9.40;99.90;;;;;;4971987;28;20045;-65
2023/11/05 04:44:46;;;;;;;12.48;3.17;;;9.30;99.90;;;;;;4971813;28;20050;-65
2023/11/05 04:47:12;;;;;;;11.52;3.42;;;9.30;99.90;;;;;;4954309;28;20038;-65
2023/11/05 04:49:37;;;;;;;14.32;3.03;;;9.40;99.90;;;;;;4972021;28;20097;-65
2023/11/05 04:52:03;;;;;;;14.55;3.88;;;9.40;99.90;;;;;;4954642;28;20053;-65
2023/11/05 04:54:29;;;;;;;12.10;3.47;;;9.40;99.90;;;;;;4971927;28;20038;-66
2023/11/05 04:56:54;;;;;;;11.73;3.33;;;9.40;99.90;;;;;;4971555;28;20557;-65
2023/11/05 04:59:20;;;;;;;12.05;3.35;;;9.40;99.90;;;;;;4971710;28;20224;-65
2023/11/05 05:01:45;;;;;;;11.85;3.38;;;9.40;99.90;;;;;;4971926;28;20047;-65
2023/11/05 05:04:11;;;;;;;12.20;3.83;;;9.40;99.90;;;;;;4971293;28;20065;-65
2023/11/05 05:06:37;;;;;;;11.70;3.45;;;9.40;99.90;;;;;;4971282;28;20108;-65
2023/11/05 05:09:03;;;;;;;13.00;3.97;;;9.40;99.90;;;;;;4954662;28;20082;-65
2023/11/05 05:11:29;;;;;;;9.02;3.40;;;9.40;99.90;;;;;;4971642;28;20043;-65
2023/11/05 05:13:54;;;;;;;8.70;3.90;;;9.40;99.90;;;;;;4954197;28;20070;-65
2023/11/05 05:16:20;;;;;;;13.90;3.50;;;9.40;99.90;;;;;;4954080;28;20462;-65
2023/11/05 05:18:46;;;;;;;12.20;3.35;;;9.40;99.90;;;;;;4971176;28;20130;-65
2023/11/05 05:21:13;;;;;;;9.32;3.28;;;9.40;99.90;;;;;;4971478;28;20090;-65
2023/11/05 05:23:38;;;;;;;10.38;3.38;;;9.40;99.90;;;;;;4971492;28;20039;-65
2023/11/05 05:26:04;;;;;;;11.98;3.67;;;9.40;99.90;;;;;;4971050;28;20038;-65
2023/11/05 05:28:30;;;;;;;12.27;4.00;;;9.50;99.90;;;;;;4971371;28;20055;-65
2023/11/05 05:30:56;;;;;;;12.40;3.60;;;9.40;99.90;;;;;;4953963;28;20055;-65
2023/11/05 05:33:22;;;;;;;10.45;3.25;;;9.50;99.90;;;;;;4971558;28;20050;-65
2023/11/05 05:35:48;;;;;;;10.52;3.55;;;9.40;99.90;;;;;;4972030;28;20050;-65
2023/11/05 05:38:15;;;;;;;8.15;3.53;;;9.50;99.90;;;;;;4971471;28;20047;-65
2023/11/05 05:40:40;;;;;;;10.13;3.65;;;9.50;99.90;;;;;;4953963;28;20058;-65
2023/11/05 05:43:06;;;;;;;9.70;3.30;;;9.50;99.90;;;;;;4971139;28;20371;-65
2023/11/05 05:45:31;;;;;;;9.55;3.67;;;9.50;99.90;;;;;;4970765;28;20041;-65
2023/11/05 05:47:57;;;;;;;8.60;3.80;;;9.50;99.90;;;;;;4971210;28;20057;-65
2023/11/05 05:50:23;;;;;;;8.50;3.70;;;9.50;99.90;;;;;;4971587;28;20042;-65
2023/11/05 05:52:48;;;;;;;9.63;3.70;;;9.50;99.90;;;;;;4953684;28;20340;-65
2023/11/05 05:55:15;;;;;;;8.02;3.63;;;9.50;99.90;;;;;;4953346;28;20052;-65
2023/11/05 05:57:41;;;;;;;9.65;3.70;;;9.50;99.90;;;;;;4970801;28;20051;-65
2023/11/05 06:00:09;;;;;;;8.25;4.07;;;9.50;99.90;;;;;;4953361;28;20047;-65
2023/11/05 06:02:35;;;;;;;10.30;4.43;;;9.50;99.90;;;;;;4953245;28;20039;-65
2023/11/05 06:05:01;;;;;;;9.77;4.60;;;9.60;99.90;;;;;;4970812;28;20038;-65
2023/11/05 06:07:31;;;;;;;9.40;4.80;;;9.50;99.90;;;;;;4953078;28;20046;-65
2023/11/05 06:09:57;;;;;;;8.82;5.03;;;9.60;99.90;;;;;;4970680;28;20050;-65
2023/11/05 06:12:23;;;;;;;12.48;4.97;;;9.50;99.90;;;;;;4953165;28;20050;-65
2023/11/05 06:14:49;;;;;;;10.38;4.88;;;9.50;99.90;;;;;;4953071;28;20051;-65
2023/11/05 06:17:14;;;;;;;9.35;5.00;;;9.60;99.90;;;;;;4970330;28;20563;-65
2023/11/05 06:19:40;;;;;;;10.40;4.90;;;9.50;99.90;;;;;;4970310;28;20050;-64
2023/11/05 06:22:06;;;;;;;9.50;4.85;;;9.60;99.90;;;;;;4952856;28;20051;-65
2023/11/05 06:24:31;;;;;;;10.38;4.78;;;9.50;99.90;;;;;;4970258;28;20398;-65
2023/11/05 06:26:58;;;;;;;11.63;5.10;;;9.60;99.90;;;;;;4952132;28;20101;-65
2023/11/05 06:29:23;;;;;;;9.98;4.97;;;9.50;99.90;;;;;;4970180;28;20050;-65
2023/11/05 06:31:49;;;;;;;8.90;4.97;;;9.50;99.90;;;;;;4970032;28;20047;-65
2023/11/05 06:34:14;;;;;;;8.25;4.85;;;9.60;99.90;;;;;;4970284;28;20035;-64
2023/11/05 06:37:06;;;;;;;11.13;5.07;;;9.60;99.90;;;;;;4969737;28;20050;-65
2023/11/05 06:39:33;;;;;;;9.73;5.43;;;9.60;99.90;;;;;;4951279;28;20051;-65
2023/11/05 06:41:58;;;;;;;9.98;4.97;;;9.60;99.90;;;;;;4952110;28;20286;-65
2023/11/05 06:44:24;;;;;;;9.90;4.82;;;9.60;99.90;;;;;;4969806;28;20050;-65
2023/11/05 06:46:50;;;;;;;9.43;5.22;;;9.60;99.90;;;;;;4969535;28;20038;-65
2023/11/05 06:49:16;;;;;;;8.50;4.93;;;9.60;99.90;;;;;;4969726;28;20043;-65
2023/11/05 06:51:41;;;;;;;11.95;5.10;;;9.60;99.90;;;;;;4969781;28;20054;-65
2023/11/05 06:54:07;;;;;;;8.23;4.88;;;9.60;99.90;;;;;;4969169;28;20043;-64
2023/11/05 06:56:33;;;;;;;9.55;4.65;;;9.60;99.90;;;;;;4969370;28;20054;-65
2023/11/05 06:58:59;;;;;;;8.32;4.57;;;9.60;99.90;;;;;;4952674;28;20129;-64
2023/11/05 07:01:25;;;;;;;7.47;4.47;;;9.60;99.90;;;;;;4969431;28;20118;-65
2023/11/05 07:03:51;;;;;;;8.57;4.43;;;9.60;99.90;;;;;;4952372;28;20117;-65
2023/11/05 07:06:18;;;;;;;8.15;4.60;;;9.60;99.90;;;;;;4968815;28;20113;-66
2023/11/05 07:08:43;;;;;;;9.73;5.43;;;9.60;99.90;;;;;;4952006;28;20043;-65
2023/11/05 07:11:09;;;;;;;9.02;4.68;;;9.60;99.90;;;;;;4951963;28;20137;-66
2023/11/05 07:13:35;;;;;;;9.25;4.53;;;9.60;99.90;;;;;;4951981;28;20090;-65
2023/11/05 07:16:01;;;;;;;8.32;4.47;;;9.60;99.90;;;;;;4968400;28;20121;-65
2023/11/05 07:18:27;;;;;;;8.10;4.80;;;9.60;99.90;;;;;;4969294;28;20570;-65
2023/11/05 07:20:52;;;;;;;8.25;4.95;;;9.60;99.90;;;;;;4968951;28;20054;-65
2023/11/05 07:23:18;;;;;;;9.45;5.00;;;9.60;99.90;;;;;;4935977;28;20118;-65
2023/11/05 07:25:44;;;;;;;9.02;4.80;;;9.60;99.90;;;;;;4969016;28;20043;-66
2023/11/05 07:28:09;;;;;;;9.55;4.22;;;9.60;99.90;;;;;;4969263;28;20078;-65
2023/11/05 07:30:35;;;;;;;11.68;4.55;;;9.60;99.90;;;;;;4968954;28;20451;-66
2023/11/05 07:33:05;;;;;;;10.98;4.97;;;9.60;99.90;;;;;;4951629;28;20073;-65
2023/11/05 07:35:33;;;;;;;8.70;4.40;;;9.60;99.90;;;;;;4950756;28;20125;-65
2023/11/05 07:37:59;;;;;;;11.45;4.60;;;9.60;99.90;;;;;;4951394;28;20101;-65
2023/11/05 07:40:24;;;;;;;8.70;4.38;;;9.60;99.90;;;;;;4968919;28;20050;-65
2023/11/05 07:42:50;;;;;;;7.38;5.10;;;9.60;99.90;;;;;;4951576;28;20048;-65
2023/11/05 07:45:16;;;;;;;8.00;4.78;;;9.60;99.90;;;;;;4968646;28;20093;-65
2023/11/05 07:47:42;;;;;;;9.43;4.80;;;9.60;99.90;;;;;;4968798;28;20074;-65
2023/11/05 07:50:12;;;;;;;9.68;4.45;;;9.70;99.90;;;;;;4951307;28;20518;-65
2023/11/05 07:52:40;;;;;;;8.38;4.55;;;9.70;99.90;;;;;;4968967;28;20051;-66
2023/11/05 07:55:07;;;;;;;9.57;4.85;;;9.70;99.90;;;;;;4954717;28;20664;-65
2023/11/05 07:57:33;;;;;;;10.43;4.60;;;9.70;99.90;;;;;;4972435;28;20043;-64
2023/11/05 08:00:00;;;;;;;11.23;4.72;;;9.80;99.90;;;;;;4955395;28;20047;-65
2023/11/05 08:02:26;;;;;;;10.43;5.35;;;9.80;99.90;;;;;;4972202;28;20081;-64
2023/11/05 08:04:51;;;;;;;8.50;4.80;;;9.80;99.90;;;;;;4972048;28;20608;-64
2023/11/05 08:07:17;;;;;;;8.60;4.82;;;9.90;99.90;;;;;;4971721;28;20043;-64
2023/11/05 08:09:43;;;;;;;11.57;5.00;;;9.80;99.90;;;;;;4955094;28;20062;-65
2023/11/05 08:12:08;;;;;;;9.48;5.32;;;9.80;99.90;;;;;;4972114;28;20454;-66
2023/11/05 08:14:34;;;;;;;12.52;5.10;;;9.90;99.90;;;;;;4972441;28;20052;-65
2023/11/05 08:16:59;;;;;;;11.70;4.80;;;9.90;99.90;;;;;;4954737;28;20070;-65
2023/11/05 08:19:25;;;;;;;10.02;4.20;;;9.90;99.90;;;;;;4971703;28;20053;-66
2023/11/05 08:21:50;;;;;;;6.88;4.70;;;9.90;99.90;;;;;;4972086;28;20513;-65
2023/11/05 08:24:16;;;;;;;13.70;5.82;;;10.00;99.90;;;;;;4954089;28;20074;-65
2023/11/05 08:26:44;;;;;;;11.50;4.85;;;10.00;99.90;;;;;;4954124;28;20039;-65
2023/11/05 08:29:10;;;;;;;14.07;4.57;;;10.00;99.90;;;;;;4939160;28;20034;-64
2023/11/05 08:31:35;;;;;;;8.35;4.50;;;10.10;99.90;;;;;;4972340;28;20101;-65
2023/11/05 08:34:01;;;;;;;11.43;4.93;;;10.20;99.90;;;;;;4954498;28;20117;-65
2023/11/05 08:36:27;;;;;;;9.90;4.97;;;10.20;99.90;;;;;;4954343;28;20035;-64
2023/11/05 08:38:52;;;;;;;9.48;4.95;;;10.20;99.90;;;;;;4972162;28;20038;-65
2023/11/05 08:41:21;;;;;;;9.55;4.78;;;10.30;99.90;;;;;;4972145;28;20070;-65
2023/11/05 08:43:47;;;;;;;10.52;4.85;;;10.30;99.90;;;;;;4954506;28;20114;-65
2023/11/05 08:46:12;;;;;;;14.18;4.80;;;10.40;99.90;;;;;;4971604;28;20446;-65
2023/11/05 08:48:38;;;;;;;9.52;4.82;;;10.40;99.90;;;;;;4971547;28;20129;-64
2023/11/05 08:51:04;;;;;;;11.95;4.55;;;10.40;99.90;;;;;;4971991;28;20038;-65
2023/11/05 08:53:29;;;;;;;12.55;4.40;;;10.40;99.90;;;;;;4954539;28;20050;-65
2023/11/05 08:55:55;;;;;;;9.77;3.92;;;10.50;99.90;;;;;;4953937;28;20057;-65
2023/11/05 08:58:20;;;;;;;12.27;4.97;;;10.50;99.90;;;;;;4971557;28;20050;-65
2023/11/05 09:00:46;;;;;;;9.35;4.32;;;10.50;99.90;;;;;;4954544;28;20082;-65
2023/11/05 09:03:12;;;;;;;7.95;4.38;;;10.50;99.90;;;;;;4971494;28;20039;-65
2023/11/05 09:05:38;;;;;;;6.97;4.22;;;10.60;99.90;;;;;;4953772;28;20054;-65
2023/11/05 09:08:04;;;;;;;13.15;4.97;;;10.60;99.90;;;;;;4972284;28;20047;-65
2023/11/05 09:10:30;;;;;;;11.18;5.13;;;10.60;99.90;;;;;;4971971;28;20046;-65
2023/11/05 09:12:59;;;;;;;13.20;4.32;;;10.60;99.90;;;;;;4954536;28;20046;-65
2023/11/05 09:15:26;;;;;;;10.50;4.95;;;10.70;99.90;;;;;;4971248;28;20090;-64
2023/11/05 09:17:51;;;;;;;9.35;4.25;;;10.60;99.90;;;;;;4971521;28;20802;-65
2023/11/05 09:20:17;;;;;;;11.90;4.97;;;10.70;99.90;;;;;;4971590;28;20043;-64
2023/11/05 09:22:43;;;;;;;12.80;4.65;;;10.70;99.90;;;;;;4971948;28;20470;-65
2023/11/05 09:25:09;;;;;;;10.80;5.05;;;10.70;99.90;;;;;;4971702;28;20042;-64
2023/11/05 09:27:36;;;;;;;11.73;5.15;;;10.70;99.90;;;;;;4954302;28;20047;-65
2023/11/05 09:30:03;;;;;;;13.27;4.88;;;10.70;99.90;;;;;;4954789;28;20059;-65
2023/11/05 09:32:29;;;;;;;11.82;4.75;;;10.80;99.90;;;;;;4971595;28;20082;-65
2023/11/05 09:34:54;;;;;;;8.85;4.75;;;10.80;99.90;;;;;;4970683;28;20507;-66
2023/11/05 09:37:20;;;;;;;14.85;5.07;;;10.90;99.90;;;;;;4971324;28;20519;-65
2023/11/05 09:39:48;;;;;;;11.85;5.18;;;10.90;99.90;;;;;;4938295;28;20051;-66
2023/11/05 09:42:19;;;;;;;12.15;4.95;;;10.90;99.90;;;;;;4954066;28;20549;-65
2023/11/05 09:44:44;;;;;;;12.15;4.95;;;11.00;99.90;;;;;;4953901;28;20066;-66
2023/11/05 09:47:12;;;;;;;11.90;5.47;;;11.00;99.90;;;;;;4970719;28;20043;-65
2023/11/05 09:49:38;;;;;;;13.88;5.47;;;11.00;99.90;;;;;;4970880;28;20054;-65
2023/11/05 09:52:06;;;;;;;8.90;4.70;;;11.10;99.90;;;;;;4971253;28;20089;-65
2023/11/05 09:54:31;;;;;;;15.82;5.78;;;11.10;99.90;;;;;;4970985;28;20058;-65
2023/11/05 09:56:57;;;;;;;14.15;5.32;;;11.10;99.90;;;;;;4970724;28;20035;-65
2023/11/05 09:59:23;;;;;;;11.27;5.10;;;11.10;99.90;;;;;;4970809;28;20049;-65
2023/11/05 10:01:53;;;;;;;12.32;5.15;;;11.10;99.90;;;;;;4970942;28;20034;-65
2023/11/05 10:04:18;;;;;;;10.93;4.88;;;11.10;99.90;;;;;;4953564;28;20049;-64
2023/11/05 10:06:44;;;;;;;12.98;5.07;;;11.10;99.90;;;;;;4970395;28;20506;-66
2023/11/05 10:09:10;;;;;;;14.70;5.10;;;11.20;99.90;;;;;;4970846;28;20175;-65
2023/11/05 10:11:36;;;;;;;15.60;5.82;;;11.20;99.90;;;;;;4970758;28;20058;-66
2023/11/05 10:14:02;;;;;;;13.65;5.80;;;11.20;99.90;;;;;;4970379;28;20035;-65
2023/11/05 10:16:28;;;;;;;12.88;5.40;;;11.30;99.90;;;;;;4951773;28;20046;-65
2023/11/05 10:18:55;;;;;;;13.52;5.47;;;11.20;99.90;;;;;;4970463;28;20453;-65
2023/11/05 10:21:35;;;;;;;12.80;5.30;;;11.20;99.90;;;;;;4970356;28;20144;-66
2023/11/05 10:24:04;;;;;;;14.32;6.15;;;11.20;99.90;;;;;;4969362;28;20054;-64
2023/11/05 10:26:33;;;;;;;18.85;6.22;;;11.20;99.90;;;;;;4936149;28;20051;-66
2023/11/05 10:29:00;;;;;;;13.43;6.50;;;11.20;99.90;;;;;;4970491;28;20046;-65
2023/11/05 10:31:27;;;;;;;15.27;6.07;;;11.20;99.90;;;;;;4969967;28;20516;-65
2023/11/05 10:33:54;;;;;;;13.07;6.07;;;11.20;99.90;;;;;;4970111;28;20490;-65
2023/11/05 10:36:20;;;;;;;18.45;6.60;;;11.20;99.90;;;;;;4952030;28;20506;-64
2023/11/05 10:38:48;;;;;;;13.77;5.68;;;11.10;99.90;;;;;;4936524;28;20038;-65
2023/11/05 10:41:17;;;;;;;15.05;6.50;;;11.20;99.90;;;;;;4969835;28;20054;-65
2023/11/05 10:43:45;;;;;;;14.57;6.90;;;11.20;99.90;;;;;;4970094;28;20078;-65
2023/11/05 10:46:11;;;;;;;13.45;6.95;;;11.30;99.90;;;;;;4969409;28;20042;-65
2023/11/05 10:48:37;;;;;;;12.88;6.28;;;11.30;99.90;;;;;;4970764;28;20043;-65
2023/11/05 10:51:03;;;;;;;11.43;6.25;;;11.30;99.90;;;;;;4953597;28;20049;-64
2023/11/05 10:53:29;;;;;;;17.92;6.10;;;11.30;99.90;;;;;;4952313;28;20056;-65
2023/11/05 10:55:55;;;;;;;13.02;6.30;;;11.30;99.90;;;;;;4952059;28;20042;-65
2023/11/05 10:58:38;;;;;;;20.73;6.75;;;11.30;99.90;;;;;;4952713;28;20471;-64
2023/11/05 11:01:05;;;;;;;18.55;6.95;;;11.30;99.90;;;;;;4952277;28;20848;-65
2023/11/05 11:03:30;;;;;;;12.68;5.88;;;11.30;99.90;;;;;;4952759;28;20126;-65
2023/11/05 11:05:58;;;;;;;16.60;6.32;;;11.30;99.90;;;;;;4967979;28;20146;-64
2023/11/05 11:08:29;;;;;;;16.15;6.72;;;11.30;99.90;;;;;;4952092;28;20047;-65
2023/11/05 11:11:15;;;;;;;15.35;6.72;;;11.30;99.90;;;;;;4952021;28;20082;-65
2023/11/05 11:13:50;;;;;;;13.45;6.22;;;11.30;99.90;;;;;;4952146;28;20438;-66
2023/11/05 11:16:25;;;;;;;12.88;6.45;;;11.30;99.90;;;;;;4968670;28;20399;-65
2023/11/05 11:18:52;;;;;;;16.92;6.28;;;11.30;99.90;;;;;;4969390;28;20047;-66
2023/11/05 11:21:18;;;;;;;14.68;6.53;;;11.30;99.90;;;;;;4969103;28;20047;-66
2023/11/05 11:23:43;;;;;;;15.75;6.97;;;11.40;99.90;;;;;;4969248;28;20057;-65
2023/11/05 11:26:20;;;;;;;18.05;6.95;;;11.40;99.90;;;;;;4968711;28;20047;-65
2023/11/05 11:28:53;;;;;;;17.13;6.65;;;11.40;99.90;;;;;;4951319;28;20494;-65
2023/11/05 11:31:20;;;;;;;12.30;6.57;;;11.40;99.90;;;;;;4951786;28;20054;-65
2023/11/05 11:33:46;;;;;;;12.77;6.00;;;11.50;99.90;;;;;;4951727;28;20066;-65
2023/11/05 11:36:11;;;;;;;18.02;6.18;;;11.40;99.90;;;;;;4967903;28;20379;-66
2023/11/05 11:38:37;;;;;;;16.00;6.70;;;11.50;99.90;;;;;;4951349;28;20179;-65
2023/11/05 11:41:03;;;;;;;13.13;5.90;;;11.50;99.90;;;;;;4951971;28;20051;-65
2023/11/05 11:43:30;;;;;;;16.02;6.38;;;11.50;99.90;;;;;;4968642;28;20066;-66
2023/11/05 11:45:56;;;;;;;12.95;6.55;;;11.40;99.90;;;;;;4968629;28;20130;-66
2023/11/05 11:48:25;;;;;;;10.90;6.32;;;11.40;99.90;;;;;;4951817;28;20130;-66
2023/11/05 11:50:52;;;;;;;15.30;5.80;;;11.40;99.90;;;;;;4951486;28;20905;-65
2023/11/05 11:53:32;;;;;;;11.63;5.78;;;11.40;99.90;;;;;;4951095;28;20122;-65
2023/11/05 11:56:01;;;;;;;13.80;5.70;;;11.40;99.90;;;;;;4968118;28;20050;-65
2023/11/05 11:58:30;;;;;;;10.80;5.88;;;11.40;99.90;;;;;;4951315;28;20058;-65
2023/11/05 12:00:57;;;;;;;11.88;6.15;;;11.40;99.90;;;;;;4969027;28;20093;-66
2023/11/05 12:03:24;;;;;;;12.32;6.43;;;11.40;99.90;;;;;;4951427;28;20054;-65
2023/11/05 12:05:52;;;;;;;12.88;5.75;;;11.40;99.90;;;;;;4934945;28;20486;-66
2023/11/05 12:08:37;;;;;;;13.48;6.18;;;11.40;99.90;;;;;;4968300;28;20387;-65
2023/11/05 12:11:06;;;;;;;11.52;5.65;;;11.40;99.90;;;;;;4968891;28;20046;-65
2023/11/05 12:13:32;;;;;;;15.63;6.53;;;11.30;99.90;;;;;;4951106;28;20047;-65
2023/11/05 12:15:58;;;;;;;14.98;6.72;;;11.30;99.90;;;;;;4968486;28;20065;-66
2023/11/05 12:18:23;;;;;;;10.63;5.82;;;11.30;99.90;;;;;;4968643;28;20046;-66
2023/11/05 12:20:49;;;;;;;17.33;6.30;;;11.30;99.90;;;;;;4968511;28;20795;-66
2023/11/05 12:23:15;;;;;;;13.93;6.63;;;11.30;99.90;;;;;;4968918;28;20042;-66
2023/11/05 12:25:41;;;;;;;14.32;6.18;;;11.30;99.90;;;;;;4967853;28;20046;-66
2023/11/05 12:28:07;;;;;;;12.20;5.97;;;11.30;99.90;;;;;;4968518;28;20031;-66
2023/11/05 12:30:33;;;;;;;11.07;6.32;;;11.30;99.90;;;;;;4968616;28;20081;-66
2023/11/05 12:33:02;;;;;;;13.60;6.22;;;11.30;99.90;;;;;;4951280;28;20083;-66
2023/11/05 12:35:27;;;;;;;12.50;5.93;;;11.30;99.90;;;;;;4968175;28;20047;-66
2023/11/05 12:37:53;;;;;;;11.48;5.45;;;11.30;99.90;;;;;;4968450;28;20046;-66
2023/11/05 12:40:19;;;;;;;6.18;3.80;;;11.30;99.90;;;;;;4952765;28;20457;-66
2023/11/05 12:42:45;;;;;;;8.48;4.05;;;11.30;99.90;;;;;;4954552;28;20129;-66